Portada
METAR-TAF:

METAR-TAF

Aeropuertos :

Houlton International Airport

Houlton, Maine, Estados Unidos

latitud: 46-07-23N, longitud: 067-47-31W, altitud: 149 m

Observación

El informe se hizo hace 38 minutos, a las 22:53 UTC
Viento calma
Temperatura 3°C
Humedad 87%
Presión 1037 hPa
Visibilidad: 16.1 km
Cielo despejado

METAR: KHUL 242253Z AUTO 00000KT 10SM CLR 03/01 A3062 RMK AO2 SLP377 T00280011

Hora: 19:31 (23:31 UTC)

Pronóstico

El informe se hizo hace 6 horas y 11 minutos, a las 17:20 UTC
Pronóstico válido del 24 a las 18 UTC al 25 a las 18 UTC
Viento 4 kt del norte
Visibilidad: 10 km
Cielo despejado
A partir de las 25 a las 0000 UTC
Viento kt del norte
Visibilidad: 10 km
Escasas nubes a una altura de 15000 ft
A partir de las 25 a las 1500 UTC
Viento 10 kt del sur con ráfagas de 18 kt
Visibilidad: 10 km
Escasas nubes a una altura de 25000 ft

TAF: KHUL 241720Z 2418/2518 35004KT P6SM SKC FM250000 00000KT P6SM FEW150 FM251500 17010G18KT P6SM FEW250

Observaciones y pronósticos meteorológicos de más de 4000 aeropuertos (mensajes METAR y TAF).

Los puntos amarillos y rojos representan las estaciones disponibles.

Ponga el ratón en el punto deseado para ver el nombre de la estación.

Haga clic para ver las observaciones y los pronósticos meteorológicos.

Para cambiar el mapa : haga clic en los botones verdes con una cruz de color negro para hacer un zoom, en el botón verde con un guión para alejar o en las flechas verdes para mapas adyacentes.


METAR-TAF: